Time;durP1;ratioP1;P1;durP2;ratioP2;P2;SDS_P1;SDS_P2;PMS_P1;PMS_P2;Temp;Humidity;BMP_temperature;BMP_pressure;BME280_temperature;BME280_humidity;BME280_pressure;Samples;Min_cycle;Max_cycle;Signal;HPM_P1;HPM_P2
2023/03/11 00:01:40;;;;;;;1.50;0.50;;;19.20;51.10;;;;;;5031296;28;20128;-63
2023/03/11 00:04:06;;;;;;;1.05;0.55;;;19.20;51.10;;;;;;5030856;28;20132;-63
2023/03/11 00:06:35;;;;;;;0.95;0.50;;;19.20;51.70;;;;;;5032074;28;20037;-63
2023/03/11 00:09:00;;;;;;;;;;;19.20;51.00;;;;;;5032149;28;20074;-63
2023/03/11 00:11:26;;;;;;;1.00;0.45;;;19.10;50.90;;;;;;5031144;28;20368;-63
2023/03/11 00:13:51;;;;;;;1.17;0.50;;;19.10;51.10;;;;;;5032031;28;20049;-63
2023/03/11 00:16:17;;;;;;;1.58;0.40;;;19.10;51.00;;;;;;5031593;28;20095;-63
2023/03/11 00:18:42;;;;;;;1.38;0.45;;;19.10;50.90;;;;;;5031781;28;20049;-63
2023/03/11 00:21:14;;;;;;;1.75;0.40;;;19.10;50.90;;;;;;5032092;28;20037;-63
2023/03/11 00:23:40;;;;;;;1.42;0.57;;;19.10;50.80;;;;;;5031204;28;20084;-62
2023/03/11 00:26:06;;;;;;;2.30;0.70;;;19.10;50.90;;;;;;5030803;28;20065;-63
2023/03/11 00:28:31;;;;;;;1.10;0.40;;;19.10;50.80;;;;;;5031052;28;20050;-63
2023/03/11 00:30:57;;;;;;;1.38;0.60;;;19.00;50.70;;;;;;5032114;28;20029;-63
2023/03/11 00:33:22;;;;;;;2.05;0.60;;;19.10;50.80;;;;;;5031222;28;20549;-62
2023/03/11 00:35:48;;;;;;;1.35;0.60;;;19.10;50.80;;;;;;5031106;28;20826;-63
2023/03/11 00:38:15;;;;;;;1.42;0.50;;;19.00;50.70;;;;;;5031842;28;20050;-63
2023/03/11 00:40:41;;;;;;;1.38;0.65;;;19.00;50.60;;;;;;5035972;28;20077;-63
2023/03/11 00:43:06;;;;;;;1.63;0.50;;;19.00;50.70;;;;;;5035079;28;20100;-63
2023/03/11 00:45:32;;;;;;;1.40;0.50;;;19.00;50.60;;;;;;5034453;28;20099;-63
2023/03/11 00:47:58;;;;;;;2.95;0.50;;;19.00;50.70;;;;;;5035977;28;20049;-62
2023/03/11 00:50:26;;;;;;;1.45;0.50;;;19.00;50.60;;;;;;5034920;28;20045;-63
2023/03/11 00:52:51;;;;;;;0.65;0.38;;;19.00;50.60;;;;;;5035645;28;20072;-63
2023/03/11 00:55:19;;;;;;;1.27;0.45;;;18.90;50.50;;;;;;5035808;28;20092;-63
2023/03/11 00:57:45;;;;;;;0.98;0.30;;;19.00;50.60;;;;;;5033431;28;20080;-63
2023/03/11 01:00:15;;;;;;;2.08;0.60;;;18.90;50.50;;;;;;5034496;28;20080;-62
2023/03/11 01:02:40;;;;;;;2.15;0.50;;;18.90;50.50;;;;;;5033960;28;20060;-63
2023/03/11 01:05:06;;;;;;;2.05;0.50;;;18.90;50.50;;;;;;5034701;28;20041;-64
2023/03/11 01:07:32;;;;;;;0.82;0.40;;;18.90;50.50;;;;;;5035671;28;20116;-63
2023/03/11 01:09:58;;;;;;;1.70;0.50;;;18.90;50.40;;;;;;5035624;28;20476;-63
2023/03/11 01:12:24;;;;;;;1.50;0.45;;;18.90;51.10;;;;;;5034301;28;20401;-63
2023/03/11 01:14:50;;;;;;;1.00;0.40;;;18.90;50.40;;;;;;5035796;28;20041;-63
2023/03/11 01:17:15;;;;;;;1.83;0.40;;;18.90;50.30;;;;;;5034144;28;20045;-63
2023/03/11 01:19:41;;;;;;;1.95;0.50;;;18.90;50.40;;;;;;5034052;28;20053;-63
2023/03/11 01:22:06;;;;;;;3.63;0.70;;;18.90;50.40;;;;;;5035340;28;20485;-63
2023/03/11 01:24:32;;;;;;;0.90;0.30;;;18.90;50.40;;;;;;5033980;28;20049;-62
2023/03/11 01:26:57;;;;;;;0.90;0.40;;;18.90;50.40;;;;;;5034770;28;20044;-63
2023/03/11 01:29:23;;;;;;;1.17;0.40;;;18.90;50.40;;;;;;5035199;28;20485;-63
2023/03/11 01:31:48;;;;;;;1.60;0.50;;;18.90;50.30;;;;;;5034106;28;20053;-63
2023/03/11 01:34:14;;;;;;;1.40;0.30;;;18.90;50.40;;;;;;5035131;28;20374;-63
2023/03/11 01:36:39;;;;;;;1.77;0.68;;;18.80;50.30;;;;;;5034597;28;20054;-63
2023/03/11 01:39:05;;;;;;;1.55;0.40;;;18.90;50.30;;;;;;5034569;28;20116;-63
2023/03/11 01:41:31;;;;;;;1.52;0.50;;;18.90;50.40;;;;;;5034719;28;20037;-63
2023/03/11 01:43:56;;;;;;;1.00;0.40;;;18.90;50.40;;;;;;5034650;28;20505;-63
2023/03/11 01:46:43;;;;;;;0.70;0.30;;;18.80;50.30;;;;;;5034239;28;20045;-62
2023/03/11 01:49:10;;;;;;;2.80;0.40;;;18.90;50.40;;;;;;5034966;28;20077;-63
2023/03/11 01:51:39;;;;;;;0.82;0.50;;;18.80;50.30;;;;;;5016681;28;20300;-63
2023/03/11 01:54:09;;;;;;;2.15;0.40;;;18.80;50.40;;;;;;5033013;28;20049;-62
2023/03/11 01:56:35;;;;;;;1.35;0.40;;;18.90;50.40;;;;;;5016923;28;20040;-63
2023/03/11 01:59:01;;;;;;;1.85;0.40;;;18.80;50.40;;;;;;5017064;28;20084;-63
2023/03/11 02:01:26;;;;;;;1.60;0.40;;;18.90;50.40;;;;;;5016149;28;20080;-63
2023/03/11 02:03:52;;;;;;;2.08;0.43;;;18.80;50.30;;;;;;5034715;28;20037;-63
2023/03/11 02:06:19;;;;;;;1.08;0.32;;;18.90;50.30;;;;;;5017270;28;20114;-63
2023/03/11 02:08:45;;;;;;;1.15;0.43;;;18.90;50.30;;;;;;5016208;28;20053;-63
2023/03/11 02:11:14;;;;;;;1.85;0.40;;;18.90;50.40;;;;;;5033571;28;20398;-63
2023/03/11 02:13:40;;;;;;;0.95;0.30;;;18.90;50.30;;;;;;4997161;28;20188;-63
2023/03/11 02:16:06;;;;;;;0.82;0.30;;;18.90;50.40;;;;;;5012563;28;20136;-63
2023/03/11 02:18:32;;;;;;;1.17;0.40;;;18.90;50.40;;;;;;5033493;28;20045;-63
2023/03/11 02:21:03;;;;;;;1.70;0.40;;;18.90;50.30;;;;;;5034396;28;20500;-63
2023/03/11 02:23:54;;;;;;;0.80;0.30;;;18.90;50.30;;;;;;5032645;28;20045;-63
2023/03/11 02:26:36;;;;;;;1.17;0.40;;;18.90;50.30;;;;;;5033106;28;20045;-63
2023/03/11 02:29:02;;;;;;;1.08;0.40;;;18.90;50.30;;;;;;5033679;28;20111;-63
2023/03/11 02:31:27;;;;;;;1.17;0.35;;;19.00;50.40;;;;;;5016485;28;20042;-63
2023/03/11 02:33:53;;;;;;;1.25;0.40;;;19.00;50.30;;;;;;5034021;28;20045;-63
2023/03/11 02:36:38;;;;;;;0.93;0.50;;;19.00;50.30;;;;;;5033563;28;20158;-62
2023/03/11 02:39:04;;;;;;;1.90;0.40;;;19.00;50.30;;;;;;5033889;28;20046;-64
2023/03/11 02:41:31;;;;;;;2.47;0.57;;;19.00;50.30;;;;;;5033594;28;20033;-63
2023/03/11 02:43:57;;;;;;;1.50;0.40;;;19.00;50.30;;;;;;5015305;28;20061;-63
2023/03/11 02:46:22;;;;;;;0.93;0.40;;;19.00;50.30;;;;;;5032310;28;20050;-65
2023/03/11 02:48:48;;;;;;;1.10;0.30;;;19.00;50.30;;;;;;5015737;28;20037;-63
2023/03/11 02:51:13;;;;;;;2.00;0.45;;;19.00;50.20;;;;;;5031443;28;20115;-63
2023/03/11 02:53:43;;;;;;;1.05;0.38;;;19.00;50.20;;;;;;5032801;28;20045;-63
2023/03/11 02:56:09;;;;;;;1.30;0.30;;;19.00;50.20;;;;;;5032274;28;20397;-63
2023/03/11 02:58:34;;;;;;;0.75;0.30;;;19.00;50.20;;;;;;5032994;28;20042;-63
2023/03/11 03:01:00;;;;;;;1.25;0.50;;;19.00;50.20;;;;;;5033270;28;20451;-63
2023/03/11 03:03:26;;;;;;;1.52;0.38;;;19.00;50.20;;;;;;5030683;28;20119;-63
2023/03/11 03:05:51;;;;;;;1.13;0.30;;;19.00;50.20;;;;;;5032631;28;20052;-63
2023/03/11 03:08:17;;;;;;;0.80;0.25;;;19.00;50.20;;;;;;5033006;28;20041;-63
2023/03/11 03:10:42;;;;;;;1.25;0.30;;;19.00;50.20;;;;;;5032478;28;20045;-63
2023/03/11 03:13:08;;;;;;;1.42;0.50;;;19.00;50.20;;;;;;5033017;28;20041;-63
2023/03/11 03:15:33;;;;;;;2.05;0.30;;;19.00;50.10;;;;;;5032902;28;20048;-63
2023/03/11 03:17:59;;;;;;;1.20;0.30;;;19.00;50.20;;;;;;5032296;28;20044;-63
2023/03/11 03:20:25;;;;;;;0.85;0.35;;;19.00;50.10;;;;;;5032693;28;20052;-63
2023/03/11 03:22:51;;;;;;;1.40;0.40;;;19.00;50.10;;;;;;5032622;28;20099;-63
2023/03/11 03:25:16;;;;;;;1.25;0.40;;;19.00;50.10;;;;;;5031355;28;20042;-62
2023/03/11 03:27:42;;;;;;;0.73;0.32;;;19.00;50.10;;;;;;5032857;28;20132;-63
2023/03/11 03:30:08;;;;;;;0.98;0.20;;;19.00;50.10;;;;;;5031405;28;20049;-63
2023/03/11 03:32:34;;;;;;;1.98;0.30;;;19.00;50.10;;;;;;5032114;28;20033;-63
2023/03/11 03:35:00;;;;;;;1.25;0.30;;;19.00;50.10;;;;;;5032991;28;20461;-63
2023/03/11 03:37:26;;;;;;;0.82;0.30;;;19.00;50.10;;;;;;5032508;28;20411;-63
2023/03/11 03:39:52;;;;;;;0.82;0.40;;;19.00;50.00;;;;;;5030971;28;20064;-62
2023/03/11 03:42:18;;;;;;;0.75;0.30;;;19.10;50.10;;;;;;5032430;28;20151;-64
2023/03/11 03:44:44;;;;;;;0.50;0.28;;;19.10;50.10;;;;;;5032428;28;20064;-63
2023/03/11 03:47:10;;;;;;;0.45;0.20;;;19.10;50.00;;;;;;5030912;28;20045;-63
2023/03/11 03:49:36;;;;;;;1.38;0.30;;;19.10;50.10;;;;;;5032303;28;20071;-63
2023/03/11 03:52:03;;;;;;;0.52;0.20;;;19.10;50.00;;;;;;5032590;28;20128;-63
2023/03/11 03:54:29;;;;;;;0.75;0.30;;;19.10;50.00;;;;;;5030275;28;20516;-63
2023/03/11 03:56:54;;;;;;;0.73;0.30;;;19.10;49.90;;;;;;5032696;28;20042;-62
2023/03/11 03:59:20;;;;;;;1.05;0.28;;;19.10;49.90;;;;;;5032548;28;20509;-62
2023/03/11 04:01:45;;;;;;;1.02;0.20;;;19.10;50.30;;;;;;5031392;28;20112;-62
2023/03/11 04:04:11;;;;;;;1.52;0.40;;;19.10;49.90;;;;;;5031116;28;20049;-62
2023/03/11 04:06:37;;;;;;;1.48;0.25;;;19.10;49.90;;;;;;5031109;28;20072;-62
2023/03/11 04:09:02;;;;;;;2.10;0.30;;;19.20;49.90;;;;;;5032659;28;20436;-62
2023/03/11 04:11:28;;;;;;;1.23;0.20;;;19.20;49.90;;;;;;5032351;28;20041;-62
2023/03/11 04:13:53;;;;;;;0.98;0.20;;;19.20;49.90;;;;;;5031613;28;20139;-62
2023/03/11 04:16:20;;;;;;;1.48;0.40;;;19.20;50.60;;;;;;5032445;28;20076;-63
2023/03/11 04:18:46;;;;;;;0.20;0.20;;;19.20;49.80;;;;;;5032001;28;20073;-63
2023/03/11 04:21:12;;;;;;;1.38;0.30;;;19.20;49.80;;;;;;5031695;28;20528;-62
2023/03/11 04:23:37;;;;;;;1.73;0.32;;;19.20;49.80;;;;;;5030493;28;20045;-63
2023/03/11 04:26:03;;;;;;;1.05;0.20;;;19.20;49.80;;;;;;5032364;28;20041;-63
2023/03/11 04:28:28;;;;;;;0.77;0.30;;;19.20;49.80;;;;;;5031136;28;20124;-62
2023/03/11 04:30:54;;;;;;;1.75;0.30;;;19.20;49.80;;;;;;5032495;28;20037;-63
2023/03/11 04:33:20;;;;;;;0.52;0.32;;;19.20;49.80;;;;;;5030970;28;20048;-63
2023/03/11 04:35:45;;;;;;;1.40;0.40;;;19.20;49.70;;;;;;5031009;28;20069;-63
2023/03/11 04:38:11;;;;;;;2.00;0.20;;;19.30;49.80;;;;;;5030775;28;20057;-63
2023/03/11 04:40:37;;;;;;;1.42;0.30;;;19.30;49.80;;;;;;5031739;28;20046;-63
2023/03/11 04:43:03;;;;;;;1.63;0.40;;;19.30;49.70;;;;;;5031367;28;20054;-63
2023/03/11 04:45:28;;;;;;;0.80;0.20;;;19.30;49.70;;;;;;5032050;28;20492;-63
2023/03/11 04:47:54;;;;;;;0.88;0.20;;;19.30;49.80;;;;;;5032031;28;20050;-63
2023/03/11 04:50:19;;;;;;;0.98;0.30;;;19.30;49.70;;;;;;5031134;28;20046;-63
2023/03/11 04:52:45;;;;;;;0.95;0.35;;;19.30;49.60;;;;;;5031801;28;20053;-63
2023/03/11 04:55:12;;;;;;;0.70;0.30;;;19.30;49.60;;;;;;5030764;28;20048;-63
2023/03/11 04:57:39;;;;;;;0.95;0.20;;;19.40;49.70;;;;;;5031096;28;20056;-63
2023/03/11 05:00:14;;;;;;;0.63;0.22;;;19.30;49.60;;;;;;5032031;28;20089;-63
2023/03/11 05:02:40;;;;;;;0.60;0.20;;;19.30;49.60;;;;;;5021618;28;20049;-62
2023/03/11 05:05:06;;;;;;;1.02;0.20;;;19.40;49.60;;;;;;5012562;28;20049;-62
2023/03/11 05:07:31;;;;;;;0.32;0.20;;;19.40;49.60;;;;;;5011697;28;20115;-63
2023/03/11 05:09:57;;;;;;;0.85;0.30;;;19.40;49.60;;;;;;5031009;28;20420;-62
2023/03/11 05:12:22;;;;;;;1.30;0.30;;;19.40;49.60;;;;;;5031752;28;20053;-63
2023/03/11 05:14:48;;;;;;;0.60;0.20;;;19.40;49.60;;;;;;5031915;28;20041;-63
2023/03/11 05:17:14;;;;;;;0.98;0.20;;;19.40;49.50;;;;;;5030873;28;20042;-63
2023/03/11 05:19:40;;;;;;;1.38;0.40;;;19.40;49.50;;;;;;5031496;28;20042;-62
2023/03/11 05:22:06;;;;;;;0.77;0.20;;;19.40;49.50;;;;;;5031561;28;20090;-62
2023/03/11 05:24:31;;;;;;;0.40;0.20;;;19.40;49.50;;;;;;5030969;28;20045;-63
2023/03/11 05:26:57;;;;;;;0.45;0.20;;;19.50;49.50;;;;;;5035381;28;20042;-63
2023/03/11 05:29:23;;;;;;;0.80;0.20;;;19.50;49.50;;;;;;5035215;28;20129;-62
2023/03/11 05:31:48;;;;;;;1.27;0.30;;;19.50;49.50;;;;;;5034387;28;20047;-62
2023/03/11 05:34:14;;;;;;;1.67;0.25;;;19.50;49.50;;;;;;5035062;28;20077;-62
2023/03/11 05:36:40;;;;;;;1.20;0.30;;;19.50;49.40;;;;;;5035090;28;20543;-63
2023/03/11 05:39:05;;;;;;;0.52;0.20;;;19.50;49.40;;;;;;5033108;28;20045;-62
2023/03/11 05:41:31;;;;;;;0.77;0.20;;;19.50;49.40;;;;;;5033309;28;20099;-63
2023/03/11 05:43:56;;;;;;;0.73;0.20;;;19.50;49.40;;;;;;5034584;28;20053;-63
2023/03/11 05:46:22;;;;;;;0.88;0.30;;;19.60;49.40;;;;;;5034188;28;20040;-63
2023/03/11 05:48:47;;;;;;;0.30;0.17;;;19.50;49.40;;;;;;5034913;28;20069;-62
2023/03/11 05:51:13;;;;;;;0.30;0.20;;;19.50;49.30;;;;;;5033602;28;20042;-62
2023/03/11 05:53:42;;;;;;;0.77;0.20;;;19.50;49.40;;;;;;5033758;28;20052;-62
2023/03/11 05:56:07;;;;;;;0.88;0.30;;;19.60;49.40;;;;;;5034849;28;20220;-63
2023/03/11 05:58:33;;;;;;;1.10;0.30;;;19.50;49.30;;;;;;5033436;28;20139;-62
2023/03/11 06:00:59;;;;;;;1.52;0.35;;;19.60;49.40;;;;;;5032525;28;20504;-62
2023/03/11 06:03:24;;;;;;;0.63;0.20;;;19.60;49.40;;;;;;5034392;28;20045;-62
2023/03/11 06:05:51;;;;;;;0.88;0.20;;;19.60;49.30;;;;;;5034614;28;20049;-62
2023/03/11 06:08:17;;;;;;;0.75;0.28;;;19.60;49.30;;;;;;5033739;28;20077;-62
2023/03/11 06:10:42;;;;;;;0.63;0.20;;;19.60;49.30;;;;;;5034385;28;20542;-62
2023/03/11 06:13:08;;;;;;;0.45;0.20;;;19.60;49.30;;;;;;5033789;28;20140;-63
2023/03/11 06:15:34;;;;;;;1.20;0.30;;;19.60;49.30;;;;;;5034069;28;20069;-62
2023/03/11 06:18:00;;;;;;;0.40;0.20;;;19.60;49.30;;;;;;5034447;28;20078;-62
2023/03/11 06:20:26;;;;;;;1.20;0.30;;;19.60;49.30;;;;;;5033206;28;20084;-63
2023/03/11 06:22:52;;;;;;;0.60;0.20;;;19.60;49.20;;;;;;5034132;28;20127;-62
2023/03/11 06:25:17;;;;;;;0.30;0.15;;;19.70;49.30;;;;;;5014572;28;20137;-62
2023/03/11 06:27:44;;;;;;;1.27;0.30;;;19.60;49.20;;;;;;5013187;28;20053;-62
2023/03/11 06:30:11;;;;;;;0.50;0.20;;;19.60;49.20;;;;;;5031779;28;20076;-62
2023/03/11 06:32:36;;;;;;;1.15;0.30;;;19.60;49.20;;;;;;5033916;28;20105;-63
2023/03/11 06:35:03;;;;;;;0.60;0.20;;;19.70;49.30;;;;;;5033240;28;20042;-62
2023/03/11 06:37:28;;;;;;;0.55;0.20;;;19.70;49.30;;;;;;5032409;28;20052;-62
2023/03/11 06:39:54;;;;;;;0.55;0.20;;;19.70;49.20;;;;;;5033734;28;20056;-62
2023/03/11 06:42:22;;;;;;;1.67;0.40;;;19.70;49.20;;;;;;5031911;28;20473;-62
2023/03/11 06:44:48;;;;;;;1.65;0.20;;;19.70;49.20;;;;;;5033766;28;20571;-62
2023/03/11 06:47:14;;;;;;;0.68;0.30;;;19.70;49.10;;;;;;5033981;28;20120;-62
2023/03/11 06:49:41;;;;;;;0.65;0.30;;;19.70;49.20;;;;;;5032923;28;20052;-62
2023/03/11 06:52:07;;;;;;;1.27;0.38;;;19.70;49.10;;;;;;5033651;28;20049;-62
2023/03/11 06:54:33;;;;;;;1.05;0.20;;;19.70;49.10;;;;;;5032260;28;20041;-62
2023/03/11 06:56:58;;;;;;;1.27;0.20;;;19.70;49.10;;;;;;5032767;28;20042;-62
2023/03/11 06:59:24;;;;;;;1.58;0.30;;;19.70;49.00;;;;;;5033405;28;20041;-63
2023/03/11 07:01:49;;;;;;;3.75;0.30;;;19.70;49.10;;;;;;5033377;28;20045;-62
2023/03/11 07:04:15;;;;;;;1.77;0.30;;;19.70;49.00;;;;;;5032857;28;20512;-62
2023/03/11 07:06:41;;;;;;;2.28;0.30;;;19.70;49.10;;;;;;5032948;28;20128;-62
2023/03/11 07:09:07;;;;;;;1.63;0.30;;;19.70;49.10;;;;;;5032868;28;20037;-62
2023/03/11 07:11:32;;;;;;;3.58;0.30;;;19.70;49.10;;;;;;5032262;28;20049;-62
2023/03/11 07:13:58;;;;;;;0.50;0.20;;;19.80;49.20;;;;;;5039027;28;20045;-62
2023/03/11 07:16:25;;;;;;;3.08;0.30;;;19.80;49.30;;;;;;5049826;28;20059;-62
2023/03/11 07:18:51;;;;;;;0.85;0.25;;;19.80;49.40;;;;;;5033345;28;20059;-62
2023/03/11 07:21:18;;;;;;;0.60;0.20;;;19.80;49.40;;;;;;5032841;28;20042;-62
2023/03/11 07:23:44;;;;;;;3.78;0.20;;;19.80;49.40;;;;;;5031668;28;20056;-62
2023/03/11 07:26:11;;;;;;;1.98;0.20;;;19.90;49.60;;;;;;5032735;28;20041;-63
2023/03/11 07:28:37;;;;;;;2.25;0.35;;;19.80;49.70;;;;;;5032176;28;20465;-65
2023/03/11 07:31:13;;;;;;;1.88;0.30;;;19.90;50.60;;;;;;5031822;28;20053;-65
2023/03/11 07:33:39;;;;;;;2.92;0.45;;;19.90;50.20;;;;;;5032472;28;20079;-64
2023/03/11 07:36:12;;;;;;;2.78;0.30;;;19.90;50.20;;;;;;5032336;28;20080;-65
2023/03/11 07:38:38;;;;;;;2.50;0.68;;;20.00;50.40;;;;;;5030346;28;20042;-65
2023/03/11 07:41:04;;;;;;;0.70;0.20;;;20.00;50.50;;;;;;5032339;28;20063;-64
2023/03/11 07:43:30;;;;;;;3.58;0.40;;;20.00;50.40;;;;;;5031723;28;20057;-65
2023/03/11 07:46:17;;;;;;;2.13;0.40;;;20.00;51.20;;;;;;5031192;28;20045;-65
2023/03/11 07:48:43;;;;;;;3.13;0.40;;;20.10;50.60;;;;;;5023232;28;20098;-65
2023/03/11 07:51:12;;;;;;;4.75;0.40;;;20.10;50.50;;;;;;5026007;28;20046;-65
2023/03/11 07:53:39;;;;;;;1.75;0.40;;;20.10;50.40;;;;;;5025871;28;20053;-65
2023/03/11 07:56:05;;;;;;;2.83;0.25;;;20.10;50.30;;;;;;5030971;28;20485;-64
2023/03/11 07:58:31;;;;;;;2.88;0.30;;;20.10;50.20;;;;;;5029057;28;20057;-65
2023/03/11 08:01:03;;;;;;;2.70;0.30;;;20.10;50.20;;;;;;5030762;28;20042;-61
2023/03/11 08:03:28;;;;;;;2.55;0.30;;;20.10;50.00;;;;;;5018313;28;20049;-64
2023/03/11 08:05:54;;;;;;;4.15;0.30;;;20.20;50.00;;;;;;5020121;28;20045;-64
2023/03/11 08:08:19;;;;;;;6.25;0.30;;;20.20;50.00;;;;;;5020652;28;20045;-63
2023/03/11 08:10:45;;;;;;;1.75;0.30;;;20.20;50.00;;;;;;5017103;28;20293;-64
2023/03/11 08:13:10;;;;;;;2.83;0.60;;;20.20;50.10;;;;;;5018956;28;20034;-64
2023/03/11 08:15:36;;;;;;;3.53;0.40;;;20.20;50.10;;;;;;5014000;28;20041;-64
2023/03/11 08:18:02;;;;;;;2.50;0.30;;;20.20;50.10;;;;;;5018090;28;20566;-63
2023/03/11 08:20:28;;;;;;;2.38;0.40;;;20.30;50.30;;;;;;5015792;28;20044;-63
2023/03/11 08:22:53;;;;;;;2.85;0.50;;;20.30;50.30;;;;;;5018691;28;20049;-66
2023/03/11 08:25:19;;;;;;;0.60;0.25;;;20.30;50.40;;;;;;5017565;28;20034;-63
2023/03/11 08:27:44;;;;;;;4.45;0.32;;;20.30;50.50;;;;;;5015186;28;20398;-63
2023/03/11 08:30:10;;;;;;;1.15;0.30;;;20.30;50.60;;;;;;5017900;28;20038;-63
2023/03/11 08:32:36;;;;;;;1.27;0.30;;;20.30;50.60;;;;;;5016898;28;20402;-63
2023/03/11 08:35:02;;;;;;;1.55;0.40;;;20.40;50.70;;;;;;5017515;28;20045;-63
2023/03/11 08:37:27;;;;;;;0.73;0.25;;;20.40;50.70;;;;;;5015758;28;20049;-64
2023/03/11 08:39:53;;;;;;;3.45;0.40;;;20.40;50.80;;;;;;5020919;28;20042;-63
2023/03/11 08:42:19;;;;;;;1.27;0.20;;;20.40;50.80;;;;;;5018633;28;20527;-63
2023/03/11 08:44:45;;;;;;;2.63;0.40;;;20.40;50.80;;;;;;5018362;28;20053;-63
2023/03/11 08:47:10;;;;;;;3.30;0.32;;;20.40;50.80;;;;;;5022376;28;20030;-65
2023/03/11 08:49:37;;;;;;;1.90;0.30;;;20.40;50.90;;;;;;5016167;28;20042;-65
2023/03/11 08:52:02;;;;;;;1.58;0.30;;;20.50;50.90;;;;;;5017915;28;20064;-65
2023/03/11 08:54:28;;;;;;;1.85;0.30;;;20.50;51.00;;;;;;5018844;28;20088;-64
2023/03/11 08:56:53;;;;;;;1.85;0.30;;;20.50;51.00;;;;;;5018823;28;20045;-61
2023/03/11 08:59:19;;;;;;;3.22;0.40;;;20.50;50.80;;;;;;5018488;28;20498;-64
2023/03/11 09:01:45;;;;;;;2.58;0.45;;;20.50;50.70;;;;;;5020920;28;20049;-64
2023/03/11 09:04:11;;;;;;;3.55;0.40;;;20.50;50.70;;;;;;5021815;28;20037;-64
2023/03/11 09:06:42;;;;;;;1.95;0.30;;;20.50;50.80;;;;;;5023971;28;20065;-64
2023/03/11 09:09:08;;;;;;;1.05;0.30;;;20.50;50.80;;;;;;5029982;28;20045;-64
2023/03/11 09:11:36;;;;;;;1.58;0.32;;;20.60;50.90;;;;;;5021171;28;20044;-63
2023/03/11 09:14:02;;;;;;;2.20;0.30;;;20.60;51.00;;;;;;5019762;28;20049;-65
2023/03/11 09:16:27;;;;;;;1.45;0.40;;;20.60;51.00;;;;;;5023706;28;20076;-66
2023/03/11 09:18:53;;;;;;;2.90;0.50;;;20.60;51.00;;;;;;5020322;28;20076;-65
2023/03/11 09:21:19;;;;;;;1.40;0.40;;;20.60;51.10;;;;;;5024283;28;20092;-65
2023/03/11 09:23:44;;;;;;;1.17;0.40;;;20.60;51.10;;;;;;5019303;28;20064;-64
2023/03/11 09:26:10;;;;;;;1.30;0.30;;;20.60;51.10;;;;;;5023475;28;20046;-64
2023/03/11 09:28:36;;;;;;;1.50;0.30;;;20.60;51.30;;;;;;5034010;28;20045;-64
2023/03/11 09:31:02;;;;;;;1.17;0.40;;;20.60;51.10;;;;;;5033698;28;20045;-65
2023/03/11 09:33:27;;;;;;;1.38;0.30;;;20.60;51.10;;;;;;5034500;28;20041;-63
2023/03/11 09:35:53;;;;;;;1.75;0.30;;;20.60;51.00;;;;;;5034811;28;20045;-62
2023/03/11 09:38:18;;;;;;;1.90;0.30;;;20.60;51.00;;;;;;5032397;28;20547;-62
2023/03/11 09:41:22;;;;;;;4.07;0.50;;;20.60;51.00;;;;;;5034656;28;20068;-62
2023/03/11 09:43:48;;;;;;;3.35;0.40;;;20.60;51.10;;;;;;5022367;28;20065;-62
2023/03/11 09:46:20;;;;;;;2.40;0.40;;;20.60;51.10;;;;;;5032364;28;20049;-62
2023/03/11 09:49:12;;;;;;;0.95;0.25;;;20.60;51.10;;;;;;5016628;28;20052;-62
2023/03/11 09:51:41;;;;;;;0.73;0.32;;;20.60;51.10;;;;;;5031849;28;20088;-63
2023/03/11 09:54:10;;;;;;;1.10;0.30;;;20.60;51.10;;;;;;5016594;28;20436;-63
2023/03/11 09:56:36;;;;;;;1.60;0.40;;;20.60;51.10;;;;;;5033380;28;20389;-62
2023/03/11 09:59:19;;;;;;;1.02;0.30;;;20.60;51.10;;;;;;5033218;28;20050;-63
2023/03/11 10:01:45;;;;;;;1.35;0.30;;;20.60;51.10;;;;;;5032707;28;20531;-62
2023/03/11 10:04:25;;;;;;;1.67;0.40;;;20.60;51.20;;;;;;5033182;28;20041;-63
2023/03/11 10:06:51;;;;;;;0.95;0.20;;;20.60;51.10;;;;;;5033570;28;20049;-63
2023/03/11 10:09:34;;;;;;;0.60;0.30;;;20.60;51.20;;;;;;5033743;28;20072;-63
2023/03/11 10:12:28;;;;;;;2.10;0.32;;;20.60;51.20;;;;;;5007117;28;20379;-64
2023/03/11 10:15:24;;;;;;;1.02;0.30;;;20.50;51.20;;;;;;5029864;28;20064;-65
2023/03/11 10:18:00;;;;;;;1.10;0.50;;;20.50;51.10;;;;;;5029185;28;20048;-65
2023/03/11 10:20:34;;;;;;;2.10;0.30;;;20.50;51.00;;;;;;5030749;28;20046;-65
2023/03/11 10:23:17;;;;;;;1.75;0.45;;;20.50;51.00;;;;;;5033306;28;20049;-65
2023/03/11 10:25:54;;;;;;;2.67;0.30;;;20.50;50.90;;;;;;5032416;28;20050;-65
2023/03/11 10:28:21;;;;;;;1.00;0.30;;;20.50;51.10;;;;;;5017258;28;20044;-64
2023/03/11 10:30:51;;;;;;;2.53;0.30;;;20.50;51.20;;;;;;5015060;28;20042;-64
2023/03/11 10:33:25;;;;;;;2.45;0.38;;;20.50;51.20;;;;;;5016508;28;20396;-63
2023/03/11 10:35:52;;;;;;;1.05;0.30;;;20.50;51.40;;;;;;5013340;28;20041;-64
2023/03/11 10:38:32;;;;;;;0.37;0.23;;;20.40;51.30;;;;;;5019774;28;20121;-64
2023/03/11 10:41:00;;;;;;;3.05;0.40;;;20.40;51.30;;;;;;4999253;28;20069;-63
2023/03/11 10:43:28;;;;;;;2.60;0.30;;;20.40;51.40;;;;;;5003647;28;20096;-64
2023/03/11 10:45:54;;;;;;;;;;;20.40;51.40;;;;;;5031485;28;20133;-65
2023/03/11 10:48:20;;;;;;;1.17;0.30;;;20.40;51.30;;;;;;5030999;28;20015;-65
2023/03/11 10:51:13;;;;;;;1.33;0.40;;;20.40;51.40;;;;;;5031442;28;20045;-64
2023/03/11 10:53:45;;;;;;;3.17;0.30;;;20.40;51.40;;;;;;5030001;28;20111;-65
2023/03/11 10:56:27;;;;;;;0.88;0.40;;;20.40;51.40;;;;;;5031507;28;20091;-63
2023/03/11 10:58:53;;;;;;;0.93;0.40;;;20.30;51.30;;;;;;5015951;28;20051;-62
2023/03/11 11:01:20;;;;;;;2.28;0.40;;;20.30;51.30;;;;;;5033190;28;20045;-63
2023/03/11 11:03:49;;;;;;;1.23;0.30;;;20.30;51.40;;;;;;5031741;28;20041;-62
2023/03/11 11:06:25;;;;;;;1.95;0.25;;;20.30;51.30;;;;;;5033164;28;20041;-62
2023/03/11 11:09:14;;;;;;;1.65;0.30;;;20.30;51.40;;;;;;5030822;28;20111;-62
2023/03/11 11:12:01;;;;;;;0.55;0.38;;;20.30;51.40;;;;;;5031607;28;20421;-61
2023/03/11 11:14:41;;;;;;;1.83;0.30;;;20.30;51.40;;;;;;5032805;28;20037;-62
2023/03/11 11:17:32;;;;;;;1.92;0.30;;;20.30;51.40;;;;;;5031278;28;20041;-62
2023/03/11 11:19:58;;;;;;;1.95;0.40;;;20.30;51.40;;;;;;5032330;28;20049;-62
2023/03/11 11:22:24;;;;;;;2.58;0.20;;;20.30;51.40;;;;;;5032151;28;20041;-62
2023/03/11 11:24:52;;;;;;;2.95;0.57;;;20.30;51.40;;;;;;5032160;28;20041;-62
2023/03/11 11:27:22;;;;;;;1.63;0.30;;;20.30;51.50;;;;;;5013910;28;20042;-63
2023/03/11 11:30:11;;;;;;;4.57;0.40;;;20.30;51.50;;;;;;5030317;28;20493;-63
2023/03/11 11:32:38;;;;;;;1.25;0.32;;;20.30;51.50;;;;;;5031206;28;20044;-62
2023/03/11 11:35:10;;;;;;;1.83;0.40;;;20.20;51.50;;;;;;5033026;28;20120;-63
2023/03/11 11:37:37;;;;;;;2.58;0.40;;;20.20;51.50;;;;;;5027806;28;20038;-64
2023/03/11 11:40:14;;;;;;;1.90;0.40;;;20.20;51.50;;;;;;5022541;28;20069;-65
2023/03/11 11:42:53;;;;;;;0.75;0.30;;;20.20;51.50;;;;;;5024690;28;20092;-64
2023/03/11 11:45:27;;;;;;;2.92;0.65;;;20.20;51.50;;;;;;5027273;28;20041;-65
2023/03/11 11:47:54;;;;;;;1.10;0.40;;;20.20;51.40;;;;;;5025494;28;20417;-65
2023/03/11 11:50:27;;;;;;;1.65;0.38;;;20.20;51.50;;;;;;5030465;28;20056;-65
2023/03/11 11:53:00;;;;;;;1.35;0.40;;;20.20;51.50;;;;;;5030334;28;20516;-64
2023/03/11 11:55:26;;;;;;;1.52;0.30;;;20.20;51.50;;;;;;5031196;28;20044;-64
2023/03/11 11:57:52;;;;;;;1.13;0.30;;;20.20;51.50;;;;;;5030534;28;20351;-64
2023/03/11 12:00:36;;;;;;;4.82;0.40;;;20.20;51.40;;;;;;5032901;28;20056;-64
2023/03/11 12:03:26;;;;;;;1.45;0.43;;;20.20;51.20;;;;;;5031455;28;20124;-64
2023/03/11 12:05:57;;;;;;;1.55;0.40;;;20.20;51.20;;;;;;5030896;28;20049;-64
2023/03/11 12:08:41;;;;;;;0.38;0.20;;;20.20;51.20;;;;;;5015328;28;20080;-64
2023/03/11 12:11:11;;;;;;;3.13;0.30;;;20.10;51.20;;;;;;5015565;28;20044;-64
2023/03/11 12:13:39;;;;;;;1.58;0.20;;;20.10;51.20;;;;;;5010402;28;20103;-61
2023/03/11 12:16:16;;;;;;;0.65;0.30;;;20.10;51.20;;;;;;5012399;28;20053;-62
2023/03/11 12:19:09;;;;;;;1.07;0.30;;;20.10;51.20;;;;;;5031611;28;20269;-65
2023/03/11 12:21:47;;;;;;;2.22;0.68;;;20.10;51.30;;;;;;5009630;28;20103;-63
2023/03/11 12:24:18;;;;;;;1.48;0.30;;;20.10;51.10;;;;;;5030882;28;20431;-61
2023/03/11 12:26:45;;;;;;;5.13;0.40;;;20.10;51.20;;;;;;5029707;28;20049;-65
2023/03/11 12:29:24;;;;;;;3.35;0.35;;;20.10;51.30;;;;;;4998143;28;20046;-63
2023/03/11 12:31:50;;;;;;;3.53;0.60;;;20.10;51.40;;;;;;5028957;28;20072;-63
2023/03/11 12:34:16;;;;;;;3.72;0.63;;;20.10;51.40;;;;;;5031439;28;20068;-62
2023/03/11 12:36:43;;;;;;;2.97;0.30;;;20.10;51.50;;;;;;5034352;28;20115;-63
2023/03/11 12:39:23;;;;;;;3.15;0.40;;;20.10;51.50;;;;;;5033943;28;20473;-62
2023/03/11 12:42:08;;;;;;;2.78;0.30;;;20.10;51.60;;;;;;5032579;28;20048;-62
2023/03/11 12:44:34;;;;;;;2.60;0.43;;;20.10;51.60;;;;;;5033490;28;20048;-62
2023/03/11 12:47:01;;;;;;;1.05;0.30;;;20.10;51.60;;;;;;5031106;28;20393;-62
2023/03/11 12:49:31;;;;;;;1.07;0.43;;;20.10;51.70;;;;;;5033960;28;20041;-62
2023/03/11 12:52:05;;;;;;;1.20;0.20;;;20.10;51.70;;;;;;5035712;28;20033;-62
2023/03/11 12:54:33;;;;;;;1.35;0.40;;;20.10;51.70;;;;;;5033370;28;20099;-62